< < Back
Terminal Aerodrome Forecast


Current Version              Previous Versions:   1  2  3  4  5  6  7  8  9  

Terminal Aerodrome Forecast

971
FTUS42 KGSP 021100
TAFHKY
TAF
KHKY 021130Z 0212/0312 32003KT P6SM SCT250
     FM021600 23005KT P6SM SCT060 BKN250
     FM022100 23005KT P6SM BKN060 PROB30 0221/0303 4SM TSRA BKN040CB
     FM030300 00000KT P6SM BKN050=



Latest METAR

062
SAUS70 KWBC 021400 RRJ
MTRHKY
METAR KHKY 021353Z 00000KT 10SM CLR 26/21 A3012 RMK AO2 SLP174
T02610211


USA.gov is the U.S. government's official web portal to all federal, state and local government web resources and services.